Terminal Aerodrome Forecast
Issued by NWS Pittsburgh, PA

Current Version | Previous Version | Text Only | Print | Product List | Glossary Off
Versions: 1 2 3 4 5 6 7 8 9 10 11 12 13 14 15 16 17 18 19 20 21 22 23 24 25 26 27 28 29 30 31 32

000
FTUS41 KPBZ 232111 AAA
TAFPIT
TAF AMD
KPIT 232111Z 2321/2424 20008KT P6SM FEW050 SCT100 SCT250
     FM232200 36003KT P6SM FEW250
     FM241000 00000KT 5SM HZ FEW250
     FM241600 19003KT P6SM SCT045=

USA.gov is the U.S. government's official web portal to all federal, state and local government web resources and services.